Cape Hatteras, NC

6:07 AM EST on March 01, 2015 (GMT -0500)
Mitchell | Change Station
CLOSE
Current Station
Airport
Location: Hatteras,
Elevation: 10 ft
Nearby Weather Stations

Elev 10 ft 35.23 °N, 75.62 °W | Updated 16 minutes ago

Overcast
Overcast
39 °F
Feels Like 35 °F
N
6
Wind Variable Wind from NE

Today
High -- | Low -- °F
--% Chance of Precip.
Yesterday
High -- | Low -- °F
Precip. -- in
6:32 AM 5:57 PM
Waxing Gibbous, 84% visible
Pressure 30.56 in
Visibility 10.0 miles
Clouds Overcast 3800 ft
Windchill 35 °F
Dew Point 37 °F
Humidity 93%
Rainfall 0.00 in
Snow Depth Not available.
UV 0 out of 12
Pollen 7.60 out of 12
Air Quality Not available.
Flu Activity Not available.
METAR KHSE 011051Z AUTO 04005KT 10SM OVC038 04/03 A3055 RMK AO2 SLP346 T00390028 TSNO

More Conditions Fewer Conditions

Pressure 30.56 in
Visibility 10.0 miles
Clouds Overcast 3800 ft
Windchill 35 °F
Dew Point 37 °F
Humidity 93%
Rainfall 0.00 in
Snow Depth Not available.
UV 0 out of 12
Pollen 7.60 out of 12
Air Quality Not available.
Flu Activity Not available.
METAR KHSE 011051Z AUTO 04005KT 10SM OVC038 04/03 A3055 RMK AO2 SLP346 T00390028 TSNO

More Conditions Fewer Conditions

10-Day Weather Forecast

Almanac

Astronomy

Mar. 01, 2015 Rise Set
Actual Time
Civil Twilight
Nautical Twilight
Astronomical Twilight
Moon
Length of Visible Light
Length of Day
Tomorrow will be .
, % of the Moon is Illuminated

Today's Extremes

State Highs State Lows

Community

WunderPhotos

Upload Photos

1,801,359 photos uploaded!

WunderBlogs® & News

Nearby

Air Quality

  Air Quality AQ Index Pollutant
Not available.

Snow Depth

Station Depth Elevation

Earthquake Activity

City Distance Mag. Time & Date
Minimum magnitude displayed is 2.5.

Coastal Water Temperatures

Place Temperature

Nearby Weather Stations